sensor_id;sensor_type;location;lat;lon;timestamp;temperature;humidity
17529;DHT22;8882;53.192;8.184;2023-09-19T00:00:20;16.30;99.90
17529;DHT22;8882;53.192;8.184;2023-09-19T00:02:52;16.30;99.90
17529;DHT22;8882;53.192;8.184;2023-09-19T00:05:19;16.30;99.90
17529;DHT22;8882;53.192;8.184;2023-09-19T00:07:53;16.30;99.90
17529;DHT22;8882;53.192;8.184;2023-09-19T00:10:22;16.30;99.90
17529;DHT22;8882;53.192;8.184;2023-09-19T00:12:53;16.20;99.90
17529;DHT22;8882;53.192;8.184;2023-09-19T00:15:21;16.20;99.90
17529;DHT22;8882;53.192;8.184;2023-09-19T00:17:46;16.20;99.90
17529;DHT22;8882;53.192;8.184;2023-09-19T00:20:13;16.30;99.90
17529;DHT22;8882;53.192;8.184;2023-09-19T00:22:41;16.20;99.90
17529;DHT22;8882;53.192;8.184;2023-09-19T00:25:09;16.20;99.90
17529;DHT22;8882;53.192;8.184;2023-09-19T00:27:54;16.30;99.90
17529;DHT22;8882;53.192;8.184;2023-09-19T00:30:20;16.30;99.90
17529;DHT22;8882;53.192;8.184;2023-09-19T00:32:47;16.20;99.90
17529;DHT22;8882;53.192;8.184;2023-09-19T00:35:16;16.20;99.90
17529;DHT22;8882;53.192;8.184;2023-09-19T00:37:42;16.30;99.90
17529;DHT22;8882;53.192;8.184;2023-09-19T00:40:09;16.20;99.90
17529;DHT22;8882;53.192;8.184;2023-09-19T00:42:41;16.30;99.90
17529;DHT22;8882;53.192;8.184;2023-09-19T00:45:11;16.30;99.90
17529;DHT22;8882;53.192;8.184;2023-09-19T00:47:42;16.20;99.90
17529;DHT22;8882;53.192;8.184;2023-09-19T00:50:11;16.20;99.90
17529;DHT22;8882;53.192;8.184;2023-09-19T00:52:41;16.20;99.90
17529;DHT22;8882;53.192;8.184;2023-09-19T00:55:08;16.20;99.90
17529;DHT22;8882;53.192;8.184;2023-09-19T00:57:37;16.20;99.90
17529;DHT22;8882;53.192;8.184;2023-09-19T01:00:06;16.20;99.90
17529;DHT22;8882;53.192;8.184;2023-09-19T01:02:36;16.20;99.90
17529;DHT22;8882;53.192;8.184;2023-09-19T01:05:02;16.10;99.90
17529;DHT22;8882;53.192;8.184;2023-09-19T01:07:30;16.10;99.90
17529;DHT22;8882;53.192;8.184;2023-09-19T01:10:03;16.10;99.90
17529;DHT22;8882;53.192;8.184;2023-09-19T01:18:21;15.90;99.90
17529;DHT22;8882;53.192;8.184;2023-09-19T01:21:11;15.90;99.90
17529;DHT22;8882;53.192;8.184;2023-09-19T01:24:16;15.90;99.90
17529;DHT22;8882;53.192;8.184;2023-09-19T01:29:51;15.90;99.90
17529;DHT22;8882;53.192;8.184;2023-09-19T01:32:21;15.80;99.90
17529;DHT22;8882;53.192;8.184;2023-09-19T01:34:51;15.70;99.90
17529;DHT22;8882;53.192;8.184;2023-09-19T01:37:19;15.80;99.90
17529;DHT22;8882;53.192;8.184;2023-09-19T01:39:58;15.80;99.90
17529;DHT22;8882;53.192;8.184;2023-09-19T01:42:44;15.70;99.90
17529;DHT22;8882;53.192;8.184;2023-09-19T01:45:35;15.70;99.90
17529;DHT22;8882;53.192;8.184;2023-09-19T01:48:25;15.70;99.90
17529;DHT22;8882;53.192;8.184;2023-09-19T01:51:03;15.70;99.90
17529;DHT22;8882;53.192;8.184;2023-09-19T01:53:40;15.70;99.90
17529;DHT22;8882;53.192;8.184;2023-09-19T01:56:12;15.70;99.90
17529;DHT22;8882;53.192;8.184;2023-09-19T01:58:50;15.70;99.90
17529;DHT22;8882;53.192;8.184;2023-09-19T02:01:21;15.60;99.90
17529;DHT22;8882;53.192;8.184;2023-09-19T02:03:48;15.60;99.90
17529;DHT22;8882;53.192;8.184;2023-09-19T02:06:15;15.60;99.90
17529;DHT22;8882;53.192;8.184;2023-09-19T02:08:42;15.50;99.90
17529;DHT22;8882;53.192;8.184;2023-09-19T02:11:08;15.60;99.90
17529;DHT22;8882;53.192;8.184;2023-09-19T02:13:34;15.50;99.90
17529;DHT22;8882;53.192;8.184;2023-09-19T02:16:00;15.50;99.90
17529;DHT22;8882;53.192;8.184;2023-09-19T02:18:25;15.40;99.90
17529;DHT22;8882;53.192;8.184;2023-09-19T02:20:53;15.30;99.90
17529;DHT22;8882;53.192;8.184;2023-09-19T02:23:20;15.20;99.90
17529;DHT22;8882;53.192;8.184;2023-09-19T02:25:55;15.10;99.90
17529;DHT22;8882;53.192;8.184;2023-09-19T02:28:23;15.10;99.90
17529;DHT22;8882;53.192;8.184;2023-09-19T02:30:55;15.10;99.90
17529;DHT22;8882;53.192;8.184;2023-09-19T02:33:21;15.10;99.90
17529;DHT22;8882;53.192;8.184;2023-09-19T02:35:47;15.10;99.90
17529;DHT22;8882;53.192;8.184;2023-09-19T02:38:12;14.90;99.90
17529;DHT22;8882;53.192;8.184;2023-09-19T02:40:38;14.90;99.90
17529;DHT22;8882;53.192;8.184;2023-09-19T02:43:04;14.90;99.90
17529;DHT22;8882;53.192;8.184;2023-09-19T02:45:30;15.00;99.90
17529;DHT22;8882;53.192;8.184;2023-09-19T02:47:56;14.90;99.90
17529;DHT22;8882;53.192;8.184;2023-09-19T02:50:22;14.90;99.90
17529;DHT22;8882;53.192;8.184;2023-09-19T02:52:48;14.90;99.90
17529;DHT22;8882;53.192;8.184;2023-09-19T02:55:15;14.80;99.90
17529;DHT22;8882;53.192;8.184;2023-09-19T02:57:53;14.80;99.90
17529;DHT22;8882;53.192;8.184;2023-09-19T03:00:22;14.70;99.90
17529;DHT22;8882;53.192;8.184;2023-09-19T03:02:53;14.80;99.90
17529;DHT22;8882;53.192;8.184;2023-09-19T03:05:20;14.70;99.90
17529;DHT22;8882;53.192;8.184;2023-09-19T03:07:47;14.70;99.90
17529;DHT22;8882;53.192;8.184;2023-09-19T03:10:16;14.60;99.90
17529;DHT22;8882;53.192;8.184;2023-09-19T03:12:42;14.60;99.90
17529;DHT22;8882;53.192;8.184;2023-09-19T03:15:08;14.70;99.90
17529;DHT22;8882;53.192;8.184;2023-09-19T03:17:34;14.70;99.90
17529;DHT22;8882;53.192;8.184;2023-09-19T03:20:00;14.60;99.90
17529;DHT22;8882;53.192;8.184;2023-09-19T03:22:27;14.60;99.90
17529;DHT22;8882;53.192;8.184;2023-09-19T03:24:52;14.60;99.90
17529;DHT22;8882;53.192;8.184;2023-09-19T03:27:19;14.60;99.90
17529;DHT22;8882;53.192;8.184;2023-09-19T03:29:46;14.60;99.90
17529;DHT22;8882;53.192;8.184;2023-09-19T03:32:11;14.60;99.90
17529;DHT22;8882;53.192;8.184;2023-09-19T03:34:38;14.50;99.90
17529;DHT22;8882;53.192;8.184;2023-09-19T03:37:08;14.50;99.90
17529;DHT22;8882;53.192;8.184;2023-09-19T03:39:34;14.50;99.90
17529;DHT22;8882;53.192;8.184;2023-09-19T03:42:01;14.50;99.90
17529;DHT22;8882;53.192;8.184;2023-09-19T03:44:26;14.40;99.90
17529;DHT22;8882;53.192;8.184;2023-09-19T03:46:52;14.50;99.90
17529;DHT22;8882;53.192;8.184;2023-09-19T03:49:17;14.40;99.90
17529;DHT22;8882;53.192;8.184;2023-09-19T03:51:44;14.40;99.90
17529;DHT22;8882;53.192;8.184;2023-09-19T03:54:09;14.40;99.90
17529;DHT22;8882;53.192;8.184;2023-09-19T03:56:35;14.30;99.90
17529;DHT22;8882;53.192;8.184;2023-09-19T03:59:00;14.40;99.90
17529;DHT22;8882;53.192;8.184;2023-09-19T04:01:28;14.30;99.90
17529;DHT22;8882;53.192;8.184;2023-09-19T04:03:56;14.30;99.90
17529;DHT22;8882;53.192;8.184;2023-09-19T04:06:22;14.40;99.90
17529;DHT22;8882;53.192;8.184;2023-09-19T04:08:47;14.30;99.90
17529;DHT22;8882;53.192;8.184;2023-09-19T04:11:14;14.40;99.90
17529;DHT22;8882;53.192;8.184;2023-09-19T04:13:39;14.30;99.90
17529;DHT22;8882;53.192;8.184;2023-09-19T04:16:05;14.20;99.90
17529;DHT22;8882;53.192;8.184;2023-09-19T04:18:32;14.20;99.90
17529;DHT22;8882;53.192;8.184;2023-09-19T04:20:59;14.20;99.90
17529;DHT22;8882;53.192;8.184;2023-09-19T04:23:27;14.20;99.90
17529;DHT22;8882;53.192;8.184;2023-09-19T04:25:53;14.20;99.90
17529;DHT22;8882;53.192;8.184;2023-09-19T04:28:19;14.20;99.90
17529;DHT22;8882;53.192;8.184;2023-09-19T04:30:45;14.10;99.90
17529;DHT22;8882;53.192;8.184;2023-09-19T04:33:10;14.10;99.90
17529;DHT22;8882;53.192;8.184;2023-09-19T04:35:37;14.10;99.90
17529;DHT22;8882;53.192;8.184;2023-09-19T04:38:04;14.20;99.90
17529;DHT22;8882;53.192;8.184;2023-09-19T04:40:31;14.20;99.90
17529;DHT22;8882;53.192;8.184;2023-09-19T04:42:59;14.20;99.90
17529;DHT22;8882;53.192;8.184;2023-09-19T04:45:28;14.20;99.90
17529;DHT22;8882;53.192;8.184;2023-09-19T04:47:54;14.20;99.90
17529;DHT22;8882;53.192;8.184;2023-09-19T04:52:49;14.20;99.90
17529;DHT22;8882;53.192;8.184;2023-09-19T04:55:16;14.20;99.90
17529;DHT22;8882;53.192;8.184;2023-09-19T04:57:50;14.20;99.90
17529;DHT22;8882;53.192;8.184;2023-09-19T05:00:18;14.20;99.90
17529;DHT22;8882;53.192;8.184;2023-09-19T05:02:49;14.00;99.90
17529;DHT22;8882;53.192;8.184;2023-09-19T05:05:14;13.90;99.90
17529;DHT22;8882;53.192;8.184;2023-09-19T05:07:42;13.90;99.90
17529;DHT22;8882;53.192;8.184;2023-09-19T05:10:08;13.80;99.90
17529;DHT22;8882;53.192;8.184;2023-09-19T05:12:35;13.80;99.90
17529;DHT22;8882;53.192;8.184;2023-09-19T05:15:03;13.80;99.90
17529;DHT22;8882;53.192;8.184;2023-09-19T05:17:29;13.90;99.90
17529;DHT22;8882;53.192;8.184;2023-09-19T05:19:55;13.90;99.90
17529;DHT22;8882;53.192;8.184;2023-09-19T05:22:20;13.90;99.90
17529;DHT22;8882;53.192;8.184;2023-09-19T05:24:46;13.90;99.90
17529;DHT22;8882;53.192;8.184;2023-09-19T05:27:14;13.90;99.90
17529;DHT22;8882;53.192;8.184;2023-09-19T05:29:45;13.90;99.90
17529;DHT22;8882;53.192;8.184;2023-09-19T05:32:11;13.90;99.90
17529;DHT22;8882;53.192;8.184;2023-09-19T05:34:37;13.90;99.90
17529;DHT22;8882;53.192;8.184;2023-09-19T05:37:04;13.90;99.90
17529;DHT22;8882;53.192;8.184;2023-09-19T05:39:32;13.90;99.90
17529;DHT22;8882;53.192;8.184;2023-09-19T05:41:58;13.90;99.90
17529;DHT22;8882;53.192;8.184;2023-09-19T05:44:25;14.00;99.90
17529;DHT22;8882;53.192;8.184;2023-09-19T05:46:51;13.90;99.90
17529;DHT22;8882;53.192;8.184;2023-09-19T05:49:18;14.00;99.90
17529;DHT22;8882;53.192;8.184;2023-09-19T05:51:45;13.90;99.90
17529;DHT22;8882;53.192;8.184;2023-09-19T05:54:11;14.00;99.90
17529;DHT22;8882;53.192;8.184;2023-09-19T05:56:36;14.00;99.90
17529;DHT22;8882;53.192;8.184;2023-09-19T05:59:02;14.10;99.90
17529;DHT22;8882;53.192;8.184;2023-09-19T06:03:58;14.10;99.90
17529;DHT22;8882;53.192;8.184;2023-09-19T06:06:25;14.10;99.90
17529;DHT22;8882;53.192;8.184;2023-09-19T06:08:51;14.20;99.90
17529;DHT22;8882;53.192;8.184;2023-09-19T06:13:48;14.20;99.90
17529;DHT22;8882;53.192;8.184;2023-09-19T06:16:14;14.30;99.90
17529;DHT22;8882;53.192;8.184;2023-09-19T06:18:39;14.30;99.90
17529;DHT22;8882;53.192;8.184;2023-09-19T06:21:05;14.30;99.90
17529;DHT22;8882;53.192;8.184;2023-09-19T06:23:34;14.30;99.90
17529;DHT22;8882;53.192;8.184;2023-09-19T06:26:00;14.30;99.90
17529;DHT22;8882;53.192;8.184;2023-09-19T06:28:25;14.30;99.90
17529;DHT22;8882;53.192;8.184;2023-09-19T06:30:54;14.20;99.90
17529;DHT22;8882;53.192;8.184;2023-09-19T06:33:20;14.30;99.90
17529;DHT22;8882;53.192;8.184;2023-09-19T06:35:47;14.30;99.90
17529;DHT22;8882;53.192;8.184;2023-09-19T06:38:13;14.30;99.90
17529;DHT22;8882;53.192;8.184;2023-09-19T06:40:42;14.30;99.90
17529;DHT22;8882;53.192;8.184;2023-09-19T06:43:10;14.30;99.90
17529;DHT22;8882;53.192;8.184;2023-09-19T06:45:36;14.30;99.90
17529;DHT22;8882;53.192;8.184;2023-09-19T06:48:01;14.30;99.90
17529;DHT22;8882;53.192;8.184;2023-09-19T06:50:28;14.30;99.90
17529;DHT22;8882;53.192;8.184;2023-09-19T06:52:56;14.30;99.90
17529;DHT22;8882;53.192;8.184;2023-09-19T06:55:25;14.30;99.90
17529;DHT22;8882;53.192;8.184;2023-09-19T06:57:53;14.40;99.90
17529;DHT22;8882;53.192;8.184;2023-09-19T07:00:22;14.40;99.90
17529;DHT22;8882;53.192;8.184;2023-09-19T07:03:03;14.40;99.90
17529;DHT22;8882;53.192;8.184;2023-09-19T07:05:33;14.40;99.90
17529;DHT22;8882;53.192;8.184;2023-09-19T07:07:59;14.50;99.90
17529;DHT22;8882;53.192;8.184;2023-09-19T07:10:26;14.50;99.90
17529;DHT22;8882;53.192;8.184;2023-09-19T07:12:59;14.50;99.90
17529;DHT22;8882;53.192;8.184;2023-09-19T07:15:26;14.50;99.90
17529;DHT22;8882;53.192;8.184;2023-09-19T07:17:55;14.60;99.90
17529;DHT22;8882;53.192;8.184;2023-09-19T07:20:22;14.60;99.90
17529;DHT22;8882;53.192;8.184;2023-09-19T07:22:49;14.70;99.90
17529;DHT22;8882;53.192;8.184;2023-09-19T07:25:16;14.70;99.90
17529;DHT22;8882;53.192;8.184;2023-09-19T07:27:42;14.80;99.90
17529;DHT22;8882;53.192;8.184;2023-09-19T07:30:08;14.80;99.90
17529;DHT22;8882;53.192;8.184;2023-09-19T07:32:34;14.80;99.90
17529;DHT22;8882;53.192;8.184;2023-09-19T07:35:04;14.90;99.90
17529;DHT22;8882;53.192;8.184;2023-09-19T07:37:31;14.90;99.90
17529;DHT22;8882;53.192;8.184;2023-09-19T07:40:07;15.00;99.90
17529;DHT22;8882;53.192;8.184;2023-09-19T07:42:35;15.00;99.90
17529;DHT22;8882;53.192;8.184;2023-09-19T07:45:01;15.10;99.90
17529;DHT22;8882;53.192;8.184;2023-09-19T07:47:27;15.10;99.90
17529;DHT22;8882;53.192;8.184;2023-09-19T07:49:53;15.20;99.90
17529;DHT22;8882;53.192;8.184;2023-09-19T07:52:20;15.30;99.90
17529;DHT22;8882;53.192;8.184;2023-09-19T07:54:48;15.40;99.90
17529;DHT22;8882;53.192;8.184;2023-09-19T07:57:15;15.40;99.90
17529;DHT22;8882;53.192;8.184;2023-09-19T07:59:41;15.50;99.90
17529;DHT22;8882;53.192;8.184;2023-09-19T08:02:10;15.60;99.90
17529;DHT22;8882;53.192;8.184;2023-09-19T08:04:42;15.60;99.90
17529;DHT22;8882;53.192;8.184;2023-09-19T08:07:07;15.70;99.90
17529;DHT22;8882;53.192;8.184;2023-09-19T08:09:34;15.80;99.90
17529;DHT22;8882;53.192;8.184;2023-09-19T08:12:04;15.80;99.90
17529;DHT22;8882;53.192;8.184;2023-09-19T08:14:30;15.80;99.90
17529;DHT22;8882;53.192;8.184;2023-09-19T08:20:05;15.90;99.90
17529;DHT22;8882;53.192;8.184;2023-09-19T08:22:30;15.90;99.90
17529;DHT22;8882;53.192;8.184;2023-09-19T08:24:57;15.90;99.90
17529;DHT22;8882;53.192;8.184;2023-09-19T08:27:23;16.00;99.90
17529;DHT22;8882;53.192;8.184;2023-09-19T08:29:52;16.10;99.90
17529;DHT22;8882;53.192;8.184;2023-09-19T08:32:19;16.20;99.90
17529;DHT22;8882;53.192;8.184;2023-09-19T08:34:49;16.30;99.90
17529;DHT22;8882;53.192;8.184;2023-09-19T08:37:15;16.40;99.90
17529;DHT22;8882;53.192;8.184;2023-09-19T08:39:42;16.50;99.90
17529;DHT22;8882;53.192;8.184;2023-09-19T08:42:08;16.60;99.90
17529;DHT22;8882;53.192;8.184;2023-09-19T08:44:37;16.70;99.90
17529;DHT22;8882;53.192;8.184;2023-09-19T08:47:10;16.70;99.90
17529;DHT22;8882;53.192;8.184;2023-09-19T08:49:57;16.60;99.90
17529;DHT22;8882;53.192;8.184;2023-09-19T08:52:28;16.70;99.90
17529;DHT22;8882;53.192;8.184;2023-09-19T08:54:58;16.70;99.90
17529;DHT22;8882;53.192;8.184;2023-09-19T08:57:29;16.70;99.90
17529;DHT22;8882;53.192;8.184;2023-09-19T08:59:55;16.70;99.90
17529;DHT22;8882;53.192;8.184;2023-09-19T09:02:22;16.70;99.90
17529;DHT22;8882;53.192;8.184;2023-09-19T09:04:50;16.70;99.90
17529;DHT22;8882;53.192;8.184;2023-09-19T09:07:17;16.60;99.90
17529;DHT22;8882;53.192;8.184;2023-09-19T09:09:44;16.60;99.90
17529;DHT22;8882;53.192;8.184;2023-09-19T09:12:14;16.70;99.90
17529;DHT22;8882;53.192;8.184;2023-09-19T09:14:44;16.70;99.90
17529;DHT22;8882;53.192;8.184;2023-09-19T09:17:11;16.60;99.90
17529;DHT22;8882;53.192;8.184;2023-09-19T09:19:38;16.50;99.90
17529;DHT22;8882;53.192;8.184;2023-09-19T09:22:11;16.50;99.90
17529;DHT22;8882;53.192;8.184;2023-09-19T09:24:37;16.50;99.90
17529;DHT22;8882;53.192;8.184;2023-09-19T09:27:15;16.50;99.90
17529;DHT22;8882;53.192;8.184;2023-09-19T09:29:48;16.50;99.90
17529;DHT22;8882;53.192;8.184;2023-09-19T09:34:55;16.60;99.90
17529;DHT22;8882;53.192;8.184;2023-09-19T09:37:22;16.60;99.90
17529;DHT22;8882;53.192;8.184;2023-09-19T09:40:00;16.60;99.90
17529;DHT22;8882;53.192;8.184;2023-09-19T09:42:45;16.60;76.20
17529;DHT22;8882;53.192;8.184;2023-09-19T09:45:19;16.60;91.40
17529;DHT22;8882;53.192;8.184;2023-09-19T09:47:54;16.60;99.90
17529;DHT22;8882;53.192;8.184;2023-09-19T09:50:33;16.70;99.90
17529;DHT22;8882;53.192;8.184;2023-09-19T09:53:22;16.80;99.90
17529;DHT22;8882;53.192;8.184;2023-09-19T09:56:07;16.80;99.90
17529;DHT22;8882;53.192;8.184;2023-09-19T09:58:52;16.70;99.90
17529;DHT22;8882;53.192;8.184;2023-09-19T10:01:21;16.80;95.40
17529;DHT22;8882;53.192;8.184;2023-09-19T10:03:57;16.80;99.40
17529;DHT22;8882;53.192;8.184;2023-09-19T10:06:23;16.80;99.90
17529;DHT22;8882;53.192;8.184;2023-09-19T10:09:08;16.80;99.90
17529;DHT22;8882;53.192;8.184;2023-09-19T10:11:44;16.80;99.90
17529;DHT22;8882;53.192;8.184;2023-09-19T10:14:12;16.70;93.60
17529;DHT22;8882;53.192;8.184;2023-09-19T10:16:46;16.70;99.90
17529;DHT22;8882;53.192;8.184;2023-09-19T10:19:28;16.80;99.90
17529;DHT22;8882;53.192;8.184;2023-09-19T10:21:55;17.00;88.90
17529;DHT22;8882;53.192;8.184;2023-09-19T10:24:22;17.10;99.90
17529;DHT22;8882;53.192;8.184;2023-09-19T10:26:50;17.30;87.30
17529;DHT22;8882;53.192;8.184;2023-09-19T10:29:17;17.30;50.00
17529;DHT22;8882;53.192;8.184;2023-09-19T10:31:46;17.40;57.60
17529;DHT22;8882;53.192;8.184;2023-09-19T10:34:14;17.60;15.60
17529;DHT22;8882;53.192;8.184;2023-09-19T10:36:44;17.70;37.90
17529;DHT22;8882;53.192;8.184;2023-09-19T10:39:14;17.80;20.00
17529;DHT22;8882;53.192;8.184;2023-09-19T10:41:50;17.80;1.00
17529;DHT22;8882;53.192;8.184;2023-09-19T10:44:21;17.80;1.00
17529;DHT22;8882;53.192;8.184;2023-09-19T10:46:49;17.80;1.00
17529;DHT22;8882;53.192;8.184;2023-09-19T10:49:14;17.90;99.90
17529;DHT22;8882;53.192;8.184;2023-09-19T10:51:43;18.00;99.90
17529;DHT22;8882;53.192;8.184;2023-09-19T10:54:16;18.10;99.90
17529;DHT22;8882;53.192;8.184;2023-09-19T10:56:46;18.00;99.90
17529;DHT22;8882;53.192;8.184;2023-09-19T10:59:18;17.90;99.90
17529;DHT22;8882;53.192;8.184;2023-09-19T11:01:53;18.10;99.90
17529;DHT22;8882;53.192;8.184;2023-09-19T11:07:05;18.30;99.90
17529;DHT22;8882;53.192;8.184;2023-09-19T11:12:12;18.20;18.60
17529;DHT22;8882;53.192;8.184;2023-09-19T11:14:39;18.20;44.20
17529;DHT22;8882;53.192;8.184;2023-09-19T11:30:38;18.40;1.00
17529;DHT22;8882;53.192;8.184;2023-09-19T11:33:27;18.40;1.00
17529;DHT22;8882;53.192;8.184;2023-09-19T11:36:07;18.40;1.00
17529;DHT22;8882;53.192;8.184;2023-09-19T11:38:57;18.40;1.00
17529;DHT22;8882;53.192;8.184;2023-09-19T11:41:39;18.40;1.00
17529;DHT22;8882;53.192;8.184;2023-09-19T11:46:33;18.40;1.80
17529;DHT22;8882;53.192;8.184;2023-09-19T11:49:09;18.30;99.90
17529;DHT22;8882;53.192;8.184;2023-09-19T11:54:10;18.50;14.40
17529;DHT22;8882;53.192;8.184;2023-09-19T11:56:43;18.90;46.80
17529;DHT22;8882;53.192;8.184;2023-09-19T11:59:10;19.10;99.90
17529;DHT22;8882;53.192;8.184;2023-09-19T12:01:38;19.10;99.90
17529;DHT22;8882;53.192;8.184;2023-09-19T12:04:12;19.00;99.90
17529;DHT22;8882;53.192;8.184;2023-09-19T12:06:40;19.00;99.90
17529;DHT22;8882;53.192;8.184;2023-09-19T12:09:12;19.00;99.90
17529;DHT22;8882;53.192;8.184;2023-09-19T12:11:42;19.10;99.90
17529;DHT22;8882;53.192;8.184;2023-09-19T12:14:11;19.10;99.90
17529;DHT22;8882;53.192;8.184;2023-09-19T12:16:39;19.20;99.90
17529;DHT22;8882;53.192;8.184;2023-09-19T12:19:20;19.20;55.60
17529;DHT22;8882;53.192;8.184;2023-09-19T12:21:57;19.40;99.90
17529;DHT22;8882;53.192;8.184;2023-09-19T12:24:24;19.40;99.90
17529;DHT22;8882;53.192;8.184;2023-09-19T12:26:52;19.50;99.90
17529;DHT22;8882;53.192;8.184;2023-09-19T12:29:20;19.40;99.90
17529;DHT22;8882;53.192;8.184;2023-09-19T12:31:55;19.40;99.90
17529;DHT22;8882;53.192;8.184;2023-09-19T12:34:32;19.50;99.90
17529;DHT22;8882;53.192;8.184;2023-09-19T12:37:11;19.40;99.90
17529;DHT22;8882;53.192;8.184;2023-09-19T12:39:38;19.40;99.90
17529;DHT22;8882;53.192;8.184;2023-09-19T12:42:07;19.40;99.90
17529;DHT22;8882;53.192;8.184;2023-09-19T12:44:35;19.40;99.90
17529;DHT22;8882;53.192;8.184;2023-09-19T12:47:18;19.40;99.90
17529;DHT22;8882;53.192;8.184;2023-09-19T12:50:09;19.50;99.90
17529;DHT22;8882;53.192;8.184;2023-09-19T12:52:50;19.10;99.90
17529;DHT22;8882;53.192;8.184;2023-09-19T12:55:29;19.10;89.90
17529;DHT22;8882;53.192;8.184;2023-09-19T12:57:59;19.10;99.90
17529;DHT22;8882;53.192;8.184;2023-09-19T13:00:39;19.10;34.60
17529;DHT22;8882;53.192;8.184;2023-09-19T13:03:26;19.00;82.80
17529;DHT22;8882;53.192;8.184;2023-09-19T13:05:57;18.90;23.60
17529;DHT22;8882;53.192;8.184;2023-09-19T13:08:32;18.90;15.00
17529;DHT22;8882;53.192;8.184;2023-09-19T13:11:04;18.80;1.00
17529;DHT22;8882;53.192;8.184;2023-09-19T13:13:36;18.80;5.90
17529;DHT22;8882;53.192;8.184;2023-09-19T13:16:02;18.90;1.00
17529;DHT22;8882;53.192;8.184;2023-09-19T13:18:29;18.90;1.00
17529;DHT22;8882;53.192;8.184;2023-09-19T13:21:14;18.90;1.00
17529;DHT22;8882;53.192;8.184;2023-09-19T13:23:49;18.80;1.00
17529;DHT22;8882;53.192;8.184;2023-09-19T13:26:14;18.90;1.00
17529;DHT22;8882;53.192;8.184;2023-09-19T13:28:40;18.90;1.00
17529;DHT22;8882;53.192;8.184;2023-09-19T13:31:06;18.90;1.00
17529;DHT22;8882;53.192;8.184;2023-09-19T13:33:32;18.90;1.00
17529;DHT22;8882;53.192;8.184;2023-09-19T13:35:57;18.90;1.00
17529;DHT22;8882;53.192;8.184;2023-09-19T13:38:23;18.90;1.00
17529;DHT22;8882;53.192;8.184;2023-09-19T13:40:49;19.00;1.00
17529;DHT22;8882;53.192;8.184;2023-09-19T13:43:14;19.00;1.00
17529;DHT22;8882;53.192;8.184;2023-09-19T13:45:41;18.90;1.00
17529;DHT22;8882;53.192;8.184;2023-09-19T13:48:09;18.90;1.00
17529;DHT22;8882;53.192;8.184;2023-09-19T13:50:36;18.80;1.00
17529;DHT22;8882;53.192;8.184;2023-09-19T13:53:10;18.80;1.00
17529;DHT22;8882;53.192;8.184;2023-09-19T13:55:35;18.80;1.00
17529;DHT22;8882;53.192;8.184;2023-09-19T13:58:03;18.80;1.00
17529;DHT22;8882;53.192;8.184;2023-09-19T14:00:32;18.80;1.00
17529;DHT22;8882;53.192;8.184;2023-09-19T14:03:02;18.80;1.00
17529;DHT22;8882;53.192;8.184;2023-09-19T14:05:29;18.70;1.00
17529;DHT22;8882;53.192;8.184;2023-09-19T14:07:55;18.70;1.00
17529;DHT22;8882;53.192;8.184;2023-09-19T14:10:21;18.60;1.00
17529;DHT22;8882;53.192;8.184;2023-09-19T14:12:46;18.60;1.00
17529;DHT22;8882;53.192;8.184;2023-09-19T14:15:13;18.50;1.00
17529;DHT22;8882;53.192;8.184;2023-09-19T14:17:39;18.40;1.00
17529;DHT22;8882;53.192;8.184;2023-09-19T14:20:08;18.50;1.00
17529;DHT22;8882;53.192;8.184;2023-09-19T14:22:35;18.40;1.00
17529;DHT22;8882;53.192;8.184;2023-09-19T14:25:02;18.40;1.00
17529;DHT22;8882;53.192;8.184;2023-09-19T14:27:28;18.40;1.00
17529;DHT22;8882;53.192;8.184;2023-09-19T14:29:53;18.50;1.00
17529;DHT22;8882;53.192;8.184;2023-09-19T14:32:19;18.50;1.00
17529;DHT22;8882;53.192;8.184;2023-09-19T14:34:44;18.40;1.00
17529;DHT22;8882;53.192;8.184;2023-09-19T14:37:11;18.40;1.00
17529;DHT22;8882;53.192;8.184;2023-09-19T14:39:37;18.40;1.00
17529;DHT22;8882;53.192;8.184;2023-09-19T14:42:05;18.40;1.00
17529;DHT22;8882;53.192;8.184;2023-09-19T14:44:30;18.40;1.00
17529;DHT22;8882;53.192;8.184;2023-09-19T14:46:58;18.40;1.00
17529;DHT22;8882;53.192;8.184;2023-09-19T14:49:24;18.40;1.00
17529;DHT22;8882;53.192;8.184;2023-09-19T14:51:50;18.30;1.00
17529;DHT22;8882;53.192;8.184;2023-09-19T14:54:17;18.30;1.00
17529;DHT22;8882;53.192;8.184;2023-09-19T14:56:44;18.30;1.00
17529;DHT22;8882;53.192;8.184;2023-09-19T14:59:10;18.30;1.00
17529;DHT22;8882;53.192;8.184;2023-09-19T15:01:36;18.20;1.00
17529;DHT22;8882;53.192;8.184;2023-09-19T15:04:02;18.20;1.00
17529;DHT22;8882;53.192;8.184;2023-09-19T15:06:27;18.30;1.00
17529;DHT22;8882;53.192;8.184;2023-09-19T15:08:53;18.30;1.00
17529;DHT22;8882;53.192;8.184;2023-09-19T15:11:19;18.30;1.00
17529;DHT22;8882;53.192;8.184;2023-09-19T15:13:46;18.40;1.00
17529;DHT22;8882;53.192;8.184;2023-09-19T15:16:12;18.40;1.00
17529;DHT22;8882;53.192;8.184;2023-09-19T15:18:40;18.50;1.00
17529;DHT22;8882;53.192;8.184;2023-09-19T15:21:09;18.50;1.00
17529;DHT22;8882;53.192;8.184;2023-09-19T15:23:36;18.50;1.00
17529;DHT22;8882;53.192;8.184;2023-09-19T15:26:03;18.60;1.00
17529;DHT22;8882;53.192;8.184;2023-09-19T15:28:29;18.60;1.00
17529;DHT22;8882;53.192;8.184;2023-09-19T15:31:08;18.50;1.00
17529;DHT22;8882;53.192;8.184;2023-09-19T15:33:34;18.50;1.00
17529;DHT22;8882;53.192;8.184;2023-09-19T15:36:02;18.40;1.00
17529;DHT22;8882;53.192;8.184;2023-09-19T15:38:29;18.50;1.00
17529;DHT22;8882;53.192;8.184;2023-09-19T15:40:55;18.50;1.00
17529;DHT22;8882;53.192;8.184;2023-09-19T15:43:20;18.40;1.00
17529;DHT22;8882;53.192;8.184;2023-09-19T15:45:47;18.40;1.00
17529;DHT22;8882;53.192;8.184;2023-09-19T15:48:13;18.40;1.00
17529;DHT22;8882;53.192;8.184;2023-09-19T15:50:39;18.40;1.00
17529;DHT22;8882;53.192;8.184;2023-09-19T15:53:06;18.40;1.00
17529;DHT22;8882;53.192;8.184;2023-09-19T15:55:38;18.40;1.00
17529;DHT22;8882;53.192;8.184;2023-09-19T15:58:04;18.30;1.00
17529;DHT22;8882;53.192;8.184;2023-09-19T16:00:32;18.30;1.00
17529;DHT22;8882;53.192;8.184;2023-09-19T16:03:00;18.30;1.00
17529;DHT22;8882;53.192;8.184;2023-09-19T16:05:26;18.30;1.00
17529;DHT22;8882;53.192;8.184;2023-09-19T16:07:52;18.30;1.00
17529;DHT22;8882;53.192;8.184;2023-09-19T16:10:19;18.30;1.00
17529;DHT22;8882;53.192;8.184;2023-09-19T16:12:45;18.30;1.00
17529;DHT22;8882;53.192;8.184;2023-09-19T16:15:10;18.30;1.00
17529;DHT22;8882;53.192;8.184;2023-09-19T16:17:37;18.30;1.00
17529;DHT22;8882;53.192;8.184;2023-09-19T16:20:03;18.30;1.00
17529;DHT22;8882;53.192;8.184;2023-09-19T16:22:28;18.30;1.00
17529;DHT22;8882;53.192;8.184;2023-09-19T16:24:54;18.30;1.00
17529;DHT22;8882;53.192;8.184;2023-09-19T16:27:19;18.30;1.00
17529;DHT22;8882;53.192;8.184;2023-09-19T16:29:47;18.20;1.00
17529;DHT22;8882;53.192;8.184;2023-09-19T16:32:14;18.20;1.00
17529;DHT22;8882;53.192;8.184;2023-09-19T16:37:08;18.20;1.00
17529;DHT22;8882;53.192;8.184;2023-09-19T16:39:34;18.20;1.00
17529;DHT22;8882;53.192;8.184;2023-09-19T16:42:00;18.20;1.00
17529;DHT22;8882;53.192;8.184;2023-09-19T16:44:25;18.20;1.00
17529;DHT22;8882;53.192;8.184;2023-09-19T16:46:51;18.20;1.00
17529;DHT22;8882;53.192;8.184;2023-09-19T16:49:17;18.20;1.00